Date,TemperatureHighF,TemperatureAvgF,TemperatureLowF,DewpointHighF,DewpointAvgF,DewpointLowF,HumidityHigh,HumidityAvg,HumidityLow,PressureMaxIn,PressureMinIn,WindSpeedMaxMPH,WindSpeedAvgMPH,GustSpeedMaxMPH,PrecipitationSumIn
2013-1-1,32.2,30.2,23.3,31.7,28.0,18.9,98,92,81,30.07,29.95,12,2,13,0.01
2013-1-2,27.6,20.9,14.4,18.9,14.0,10.1,84,75,55,30.25,30.05,16,2,16,0.02
2013-1-3,34.1,21.7,5.6,20.8,14.4,2.7,94,74,55,30.25,30.13,23,4,25,0.07
2013-1-4,32.9,29.8,27.8,22.6,20.6,17.9,77,69,58,30.25,30.14,27,8,32,0.01
2013-1-5,39.1,31.2,26.0,25.4,22.0,17.5,78,69,54,30.38,30.13,15,4,15,0.10
2013-1-6,39.1,35.6,30.7,32.4,28.3,23.9,88,75,65,30.18,29.97,17,3,19,0.06
2013-1-7,37.2,30.3,18.6,29.2,24.6,15.9,89,79,61,30.45,30.18,11,2,13,0.01
2013-1-8,46.1,28.5,14.1,32.3,22.2,12.2,100,79,50,30.36,30.26,14,1,16,0.00
2013-1-9,47.3,36.4,21.6,42.0,32.0,19.6,99,85,70,30.46,30.22,22,3,22,0.06
2013-1-10,41.5,33.7,23.5,34.3,27.8,22.0,99,80,65,30.59,30.26,10,0,10,0.00
2013-1-11,55.6,44.0,36.5,55.2,40.5,28.7,100,88,69,30.26,29.91,15,1,21,0.16
2013-1-12,63.7,52.2,39.5,60.6,50.7,39.2,100,95,76,30.05,29.89,12,1,12,0.01
2013-1-13,68.9,60.5,49.9,58.2,54.8,48.5,99,83,64,29.89,29.80,24,4,26,0.14
2013-1-14,58.1,39.4,31.3,57.7,33.0,24.3,99,78,58,30.35,29.82,20,2,22,0.03
2013-1-15,33.7,30.0,24.4,29.8,24.1,21.1,92,79,68,30.38,30.05,5,0,6,0.03
2013-1-16,34.0,32.7,31.9,34.0,32.1,29.8,100,98,92,30.05,29.88,12,3,14,0.26
2013-1-17,34.1,32.4,31.2,30.4,29.1,27.3,92,87,83,30.17,29.99,14,2,15,0.03
2013-1-18,32.5,27.6,18.6,27.3,15.0,7.4,85,59,51,30.49,30.14,18,5,22,0.01
2013-1-19,53.6,44.5,32.4,24.2,18.3,11.9,52,35,24,30.25,29.79,28,9,31,0.09
2013-1-20,47.0,36.1,23.6,31.9,19.7,12.0,65,52,39,30.12,29.74,31,7,38,0.00
2013-1-21,26.4,22.1,12.3,17.5,12.3,-1.1,79,66,49,30.11,29.90,25,5,29,0.00
2013-1-22,14.4,9.9,6.9,2.9,-1.2,-3.8,69,60,44,30.31,30.07,21,5,25,0.00
2013-1-23,16.7,11.6,4.8,9.8,1.4,-1.9,80,63,44,30.33,30.08,18,3,19,0.00
2013-1-24,23.0,16.1,10.2,14.8,7.0,-2.4,88,69,35,30.56,30.06,14,1,15,0.00
2013-1-25,20.5,15.7,10.4,15.9,9.8,3.3,89,77,62,30.54,30.03,10,0,12,0.00
2013-1-26,27.3,23.0,16.1,24.4,18.8,11.3,95,84,64,30.45,30.10,14,2,15,0.00
2013-1-27,33.1,22.2,6.0,21.1,14.3,3.1,94,73,51,30.56,30.29,10,0,10,0.05
2013-1-28,50.8,41.4,30.3,50.7,39.8,20.3,100,94,66,30.30,29.98,19,5,22,0.15
2013-1-29,67.8,56.6,50.2,57.7,52.0,46.0,100,86,62,30.01,29.72,22,4,22,0.01
2013-1-30,68.1,57.9,49.6,58.0,52.9,45.5,100,85,64,29.72,29.18,33,8,37,0.96
2013-1-31,49.6,28.8,22.5,45.5,21.7,12.7,91,75,55,29.86,29.18,38,10,38,0.04
2013-2-1,22.7,15.4,9.5,20.5,7.1,1.8,91,69,58,30.37,29.82,26,6,26,0.00
2013-2-2,24.1,17.1,7.0,21.8,12.1,0.9,94,81,71,30.35,29.97,18,4,22,0.00
2013-2-3,26.7,22.8,17.8,25.1,20.4,12.6,97,90,79,30.03,29.82,22,2,26,0.03
2013-2-4,26.4,22.2,17.7,25.1,17.5,11.0,95,82,65,30.09,29.84,18,3,19,0.00
2013-2-5,31.9,28.9,26.3,31.8,27.7,24.9,100,95,80,29.93,29.80,19,1,20,0.03
2013-2-6,32.7,27.0,13.5,27.7,22.2,10.1,98,83,60,30.34,29.93,12,1,12,0.03
2013-2-7,45.5,29.3,11.4,29.6,22.2,8.6,95,76,51,30.31,29.93,16,1,17,0.07
2013-2-8,38.8,33.0,26.0,37.5,29.0,21.9,96,85,77,30.14,29.77,26,5,28,0.12
2013-2-9,35.6,26.8,18.0,22.7,18.1,13.7,87,70,46,30.39,30.14,15,1,17,0.00
2013-2-10,51.9,33.3,13.6,29.1,18.6,10.8,94,61,27,30.36,29.91,20,2,20,0.00
2013-2-11,61.3,47.5,38.0,48.1,36.1,25.7,98,68,31,29.91,29.61,33,7,36,0.03
2013-2-12,43.5,36.2,25.8,28.6,25.6,21.9,86,66,50,30.06,29.88,29,4,30,0.00
2013-2-13,39.8,30.3,22.1,32.8,27.1,20.1,99,89,66,29.91,29.66,5,0,6,0.03
2013-2-14,42.8,35.2,28.1,35.0,30.9,27.1,99,85,67,29.94,29.82,19,3,24,0.10
2013-2-15,39.1,34.7,27.6,35.8,29.5,25.3,95,82,65,30.04,29.87,18,3,18,0.00
2013-2-16,31.2,25.7,21.1,26.1,19.2,12.5,94,77,54,30.04,29.91,12,2,15,0.08
2013-2-17,23.2,18.9,14.6,18.1,11.8,4.5,88,74,53,30.27,29.91,20,4,22,0.00
2013-2-18,44.6,25.7,5.2,32.0,14.5,1.4,90,65,39,30.32,29.85,18,2,21,0.00
2013-2-19,46.7,36.9,24.4,39.8,29.3,14.7,92,75,44,29.93,29.64,31,8,34,0.14
2013-2-20,24.2,20.3,18.3,18.0,12.9,9.0,87,73,61,30.23,29.93,25,6,27,0.00
2013-2-21,26.4,21.8,19.2,16.8,15.2,13.3,88,75,61,30.35,30.20,13,2,14,0.00
2013-2-22,38.6,31.8,21.8,35.4,26.7,14.9,97,82,60,30.27,29.96,19,1,20,0.02
2013-2-23,44.3,36.1,27.2,38.8,32.7,24.9,97,88,69,29.97,29.83,10,0,10,0.00
2013-2-24,30.6,28.4,24.2,28.1,23.9,21.6,97,84,72,30.13,29.84,15,2,18,0.00
2013-2-25,44.8,33.2,21.9,28.7,23.1,18.6,91,68,43,30.21,30.03,15,0,15,0.00
2013-2-26,40.9,34.8,25.0,37.8,29.3,21.0,99,82,54,30.04,29.53,25,2,29,0.85
2013-2-27,42.6,39.4,34.0,40.0,36.9,32.7,98,91,75,29.65,29.51,26,5,28,0.18
2013-2-28,34.7,33.4,32.2,33.4,31.3,29.0,96,92,86,29.79,29.59,15,5,18,0.04
2013-3-1,32.5,30.1,26.4,30.5,26.3,21.9,94,86,76,29.96,29.79,14,1,15,0.02
2013-3-2,30.4,26.9,25.3,23.3,22.1,20.5,91,82,70,29.95,29.89,12,1,14,0.01
2013-3-3,27.9,25.5,23.5,24.0,19.9,16.2,94,79,62,30.01,29.91,16,3,16,0.01
2013-3-4,38.5,28.0,20.3,21.8,17.8,13.8,84,66,45,30.12,30.01,16,2,20,0.00
2013-3-5,48.0,33.3,16.9,30.6,17.6,9.7,94,58,21,30.08,29.63,28,1,33,0.00
2013-3-6,44.8,36.0,31.5,36.9,31.2,27.5,100,84,64,30.09,29.63,10,0,22,0.35
2013-3-7,39.8,35.2,31.3,32.8,30.5,27.1,93,83,61,30.27,30.07,13,1,16,0.01
2013-3-8,37.2,32.4,25.6,29.9,26.8,23.1,90,80,70,30.40,30.26,13,2,17,0.02
2013-3-9,55.4,36.8,19.9,33.3,26.0,18.5,98,70,31,30.40,30.14,10,0,13,0.00
2013-3-10,71.8,53.2,33.2,35.7,31.4,28.3,84,50,22,30.14,29.93,16,3,23,0.00
2013-3-11,64.5,56.1,46.0,50.1,36.0,29.0,92,50,27,29.94,29.62,27,5,36,0.17
2013-3-12,47.6,39.8,35.8,45.3,34.1,28.3,94,80,68,29.97,29.72,19,5,20,0.02
2013-3-13,35.8,31.6,27.6,31.1,26.5,19.8,96,82,58,30.12,29.90,23,6,26,0.03
2013-3-14,40.2,30.3,23.8,22.0,19.1,16.8,75,64,44,30.22,30.10,20,4,29,0.00
2013-3-15,49.9,37.3,21.0,36.5,27.0,17.3,90,67,52,30.14,29.78,24,4,24,0.01
2013-3-16,43.2,38.3,32.8,40.4,36.9,30.7,99,95,78,29.93,29.58,11,1,16,0.03
2013-3-17,37.9,32.8,29.0,30.7,24.8,22.3,92,73,55,30.17,29.93,9,0,12,0.00
2013-3-18,41.2,35.2,30.6,37.6,31.6,22.9,98,87,71,30.13,29.66,32,4,34,0.45
2013-3-19,44.3,38.2,30.1,43.7,27.6,16.6,98,67,41,29.95,29.65,34,8,38,0.04
2013-3-20,39.6,31.9,26.3,21.9,18.0,14.7,72,57,41,29.96,29.79,22,5,27,0.00
2013-3-21,28.2,24.3,18.8,20.0,13.6,7.6,87,64,46,29.91,29.84,21,4,23,0.00
2013-3-22,36.5,28.8,23.6,21.4,19.4,17.7,84,68,51,30.02,29.89,20,4,20,0.00
2013-3-23,47.9,32.4,17.3,28.2,20.8,15.1,94,66,34,30.03,29.95,17,1,21,0.00
2013-3-24,44.1,33.7,26.1,31.3,23.8,19.3,93,69,42,29.97,29.48,25,2,31,0.00
2013-3-25,35.9,33.6,31.3,35.6,33.0,30.2,100,98,88,29.71,29.40,13,2,16,0.53
2013-3-26,41.1,35.6,31.6,33.3,31.9,28.4,100,87,69,30.06,29.71,15,2,16,0.05
2013-3-27,42.9,36.8,32.2,34.4,29.1,24.7,98,76,50,30.14,30.04,20,4,25,0.04
2013-3-28,44.1,38.7,35.2,31.7,29.3,27.5,78,69,54,30.23,30.10,15,3,17,0.00
2013-3-29,53.1,42.6,34.4,33.6,28.2,20.6,90,61,29,30.24,30.12,20,2,21,0.00
2013-3-30,57.2,41.2,23.2,33.7,23.4,17.6,94,55,22,30.23,29.98,14,1,14,0.00
2013-3-31,50.4,44.0,36.2,47.6,38.8,26.7,97,82,57,29.98,29.69,14,2,16,0.08
2013-4-1,46.5,41.5,33.1,44.3,28.2,11.7,94,63,29,30.00,29.66,20,5,21,0.03
2013-4-2,40.2,32.5,26.4,18.6,15.5,11.5,68,50,33,30.18,30.00,20,3,24,0.00
2013-4-3,41.1,30.5,18.9,23.1,14.0,6.9,88,54,27,30.40,30.17,20,2,21,0.00
2013-4-4,54.7,36.1,16.4,27.3,15.2,6.9,89,50,16,30.38,29.94,15,1,16,0.00
2013-4-5,56.2,41.4,25.4,33.8,24.7,19.9,87,55,29,30.14,29.90,17,1,18,0.00
2013-4-6,59.3,42.2,22.7,26.4,17.3,8.0,88,44,13,30.27,29.97,14,1,20,0.00
2013-4-7,71.6,61.7,51.6,48.9,36.8,18.7,66,40,27,29.97,29.81,29,8,31,0.00
2013-4-8,74.2,61.4,44.5,51.5,45.6,39.8,92,60,35,29.99,29.83,24,5,28,0.00
2013-4-9,80.1,69.5,54.1,57.8,53.1,48.0,89,58,38,30.04,29.84,19,4,22,0.00
2013-4-10,81.2,70.0,60.1,61.7,57.5,50.8,98,66,44,29.90,29.72,24,4,27,0.23
2013-4-11,75.4,64.6,53.1,63.1,58.0,53.0,100,82,55,29.82,29.52,16,1,18,0.01
2013-4-12,64.3,56.9,45.5,61.2,50.3,34.4,100,80,57,29.82,29.43,25,5,27,0.43
2013-4-13,54.1,45.7,38.0,37.0,34.1,31.2,81,65,48,29.99,29.81,23,4,27,0.00
2013-4-14,62.7,48.3,29.7,39.3,33.3,27.1,94,60,34,30.12,29.95,13,1,13,0.00
2013-4-15,67.6,60.8,53.9,51.2,45.4,35.8,68,57,46,30.03,29.91,27,5,32,0.00
2013-4-16,78.5,64.5,51.7,60.8,54.9,46.6,100,73,51,30.13,29.96,22,4,22,0.77
2013-4-17,68.3,59.2,52.0,58.8,54.7,50.1,100,86,66,30.20,30.04,11,-82,11,0.00
2013-4-18,85.3,72.3,57.8,61.1,57.3,53.5,94,63,35,30.05,29.70,26,-279,32,0.00
2013-4-19,72.0,59.6,43.9,61.9,49.0,30.2,91,69,55,29.82,29.43,28,8,29,0.13
2013-4-20,47.6,41.4,32.5,33.6,27.8,22.9,80,60,40,30.38,29.82,26,6,28,0.01
2013-4-21,54.4,40.9,25.1,31.4,23.5,15.9,96,56,23,30.57,30.38,18,-181,18,0.00
2013-4-22,63.1,51.2,40.3,33.5,26.3,20.1,57,40,22,30.42,30.23,24,3,26,0.00
2013-4-23,71.5,55.7,35.3,43.6,35.0,29.9,89,50,25,30.23,29.90,17,2,17,0.00
2013-4-24,69.6,56.2,39.6,57.5,45.4,35.2,95,69,47,30.13,29.70,30,5,33,0.26
2013-4-25,57.2,45.0,31.9,40.0,33.4,25.8,97,68,31,30.32,30.13,22,4,23,0.01
2013-4-26,61.3,48.7,33.8,43.4,33.9,25.3,99,63,27,30.43,30.32,15,1,16,0.00
2013-4-27,74.6,55.8,32.5,43.4,34.2,28.1,97,53,19,30.36,30.09,18,1,20,0.00
2013-4-28,61.3,56.6,48.8,56.3,48.8,39.9,97,77,46,30.09,29.88,21,3,21,0.20
2013-4-29,64.7,57.9,52.6,57.5,54.1,49.1,96,87,74,29.97,29.88,16,1,20,0.07
2013-4-30,74.4,61.8,48.6,57.6,53.1,47.6,100,76,49,30.13,29.97,21,2,32,0.00
2013-5-1,77.0,64.1,50.4,55.0,47.6,31.5,96,60,29,30.25,30.12,20,2,21,0.00
2013-5-2,78.6,60.6,43.5,99.9,39.4,25.4,88,43,14,30.30,30.14,20,-67,25,0.00
2013-5-3,74.9,57.1,43.6,99.9,44.5,32.6,88,47,26,30.20,30.10,32,-64,34,0.00
2013-5-4,71.6,60.3,47.3,43.5,38.9,32.3,66,47,26,30.15,30.03,29,4,29,0.00
2013-5-5,73.9,60.4,42.5,44.2,32.7,17.2,91,42,13,30.09,29.95,27,4,33,0.00
2013-5-6,69.8,59.2,44.2,55.1,47.0,35.5,84,65,46,30.03,29.94,24,3,27,0.00
2013-5-7,66.1,61.1,57.5,60.2,56.3,53.7,93,85,71,29.96,29.89,19,1,22,0.16
2013-5-8,74.7,63.8,53.3,57.8,52.0,42.3,100,70,34,29.93,29.83,17,1,17,0.17
2013-5-9,78.3,65.1,53.3,58.8,53.2,43.9,98,70,30,29.94,29.84,14,1,15,0.00
2013-5-10,76.3,62.0,56.0,99.9,59.9,53.1,99,87,57,29.94,29.75,33,-8,41,0.57
2013-5-11,61.3,57.2,49.8,61.2,55.6,47.9,100,95,80,29.80,29.71,13,2,14,0.27
2013-5-12,52.5,47.8,38.8,50.5,33.8,25.8,96,60,38,30.02,29.79,26,5,29,0.00
2013-5-13,54.1,43.8,31.5,32.3,27.6,19.5,90,56,32,30.15,30.02,19,2,24,0.00
2013-5-14,62.9,48.1,29.1,42.0,34.5,27.3,97,63,36,30.16,29.84,20,2,20,0.00
2013-5-15,85.3,69.2,48.9,63.0,55.6,41.0,86,64,42,29.84,29.64,26,4,27,0.00
2013-5-16,78.6,70.0,61.2,66.2,57.9,46.2,100,70,33,29.90,29.69,14,2,17,0.21
2013-5-17,81.6,67.2,56.6,64.1,57.8,49.9,100,77,35,30.05,29.90,9,0,10,0.00
2013-5-18,83.6,68.1,51.9,63.2,57.4,51.0,100,72,41,30.07,29.97,18,1,19,0.00
2013-5-19,77.6,69.4,59.3,65.8,62.1,57.8,97,79,64,30.04,29.91,15,2,17,0.00
2013-5-20,85.7,72.7,59.2,69.1,64.8,58.7,100,78,52,29.98,29.84,14,1,18,0.00
2013-5-21,86.7,75.3,62.4,70.7,66.1,60.6,100,76,50,29.90,29.75,16,3,20,0.00
2013-5-22,86.5,72.8,66.1,66.9,63.6,59.7,91,74,46,29.83,29.71,24,4,25,0.04
2013-5-23,77.0,65.5,50.5,66.0,62.2,49.3,100,90,54,29.85,29.71,18,3,20,0.52
2013-5-24,50.5,45.8,40.9,49.2,39.2,32.6,97,79,59,30.26,29.85,18,3,22,0.01
2013-5-25,62.9,47.8,31.5,41.9,35.2,29.9,98,66,31,30.30,30.18,20,2,23,0.00
2013-5-26,68.3,52.0,33.8,42.7,37.0,32.0,97,62,29,30.26,30.16,15,1,16,0.00
2013-5-27,61.5,52.5,38.0,50.3,44.1,36.7,100,75,55,30.23,30.04,11,0,12,0.01
2013-5-28,80.5,67.2,56.3,67.7,60.1,49.5,100,80,54,30.04,29.92,23,2,23,0.16
2013-5-29,85.1,75.9,66.1,64.2,61.5,58.0,83,62,42,30.02,29.93,19,4,21,0.00
2013-5-30,86.7,71.9,59.3,69.2,63.1,58.1,100,77,41,30.12,30.00,13,1,14,0.00
2013-5-31,87.6,76.0,62.6,67.6,63.8,60.4,100,70,41,30.05,29.91,16,2,20,0.00
2013-6-1,85.9,77.4,68.3,68.1,65.9,62.8,92,69,51,29.94,29.73,20,4,24,0.00
2013-6-2,79.4,74.2,67.9,68.5,63.9,57.7,96,72,53,29.80,29.71,21,4,22,0.05
2013-6-3,68.4,63.1,52.9,63.6,55.4,42.1,89,77,64,30.02,29.79,13,0,14,0.00
2013-6-4,74.4,58.7,39.6,51.6,45.3,38.0,99,65,35,30.12,30.02,12,0,12,0.00
2013-6-5,82.8,66.3,47.7,63.7,55.4,46.8,100,71,50,30.09,29.86,16,1,20,0.00
2013-6-6,71.1,66.8,63.2,68.2,64.9,59.3,100,94,70,29.87,29.71,18,2,20,0.73
2013-6-7,66.3,62.9,59.2,64.1,61.2,55.3,100,95,84,29.80,29.69,10,0,11,0.01
2013-6-8,73.3,63.4,57.0,58.3,56.0,54.0,95,78,55,30.06,29.80,13,1,13,0.00
2013-6-9,84.5,70.8,55.4,65.7,60.8,54.2,100,74,46,30.11,29.95,14,1,15,0.00
2013-6-10,75.8,71.0,67.3,71.4,67.4,64.3,99,89,76,29.95,29.72,15,2,17,0.21
2013-6-11,78.5,69.9,65.5,70.5,65.0,61.6,100,86,61,29.83,29.73,16,3,18,0.10
2013-6-12,82.4,74.3,64.2,72.2,67.7,63.2,99,81,60,29.85,29.66,11,1,15,0.00
2013-6-13,74.6,67.5,60.1,73.3,64.7,55.8,99,91,78,29.73,29.47,27,3,27,0.73
2013-6-14,74.7,62.9,54.8,60.9,57.1,52.5,100,83,47,30.01,29.73,13,1,16,0.00
2013-6-15,78.6,65.6,49.1,59.7,53.3,46.5,100,70,35,30.08,29.95,14,1,14,0.00
2013-6-16,73.7,68.4,63.2,68.9,64.3,57.2,98,87,72,29.96,29.85,17,3,18,0.21
2013-6-17,83.4,73.9,66.1,69.1,64.5,58.0,100,76,44,29.91,29.82,10,1,11,0.00
2013-6-18,78.5,68.3,63.2,69.5,64.9,61.3,100,90,68,29.89,29.78,17,0,17,0.27
2013-6-19,78.6,66.7,55.3,61.3,53.3,41.4,100,68,28,30.10,29.89,13,0,15,0.00
2013-6-20,82.6,66.9,49.1,60.2,53.7,48.2,100,68,34,30.18,30.10,12,0,14,0.00
2013-6-21,86.5,71.1,53.9,64.9,58.1,53.6,100,69,35,30.20,30.10,11,1,12,0.00
2013-6-22,87.2,74.1,58.6,70.1,65.2,58.0,100,76,51,30.14,30.02,16,2,16,0.00
2013-6-23,86.7,76.9,65.5,73.3,67.9,62.8,100,77,46,30.09,29.99,13,1,13,0.00
2013-6-24,88.4,77.5,64.8,72.4,66.8,62.3,100,73,45,30.08,29.94,12,2,14,0.00
2013-6-25,88.0,76.3,67.3,71.6,68.0,64.3,100,78,51,29.99,29.83,29,3,35,0.33
2013-6-26,82.0,73.5,66.4,72.2,68.9,66.3,100,87,64,29.90,29.75,14,2,16,0.47
2013-6-27,76.7,71.2,68.8,72.0,69.9,67.0,100,96,81,29.75,29.57,18,2,18,0.78
2013-6-28,78.6,69.4,64.2,71.1,66.5,62.9,100,91,71,29.60,29.43,12,1,22,0.08
2013-6-29,79.6,69.2,59.0,68.1,63.8,58.9,100,84,58,29.62,29.49,14,2,17,0.02
2013-6-30,84.1,71.1,61.5,73.1,66.0,61.4,100,86,57,29.77,29.62,11,0,26,1.24
2013-7-1,81.8,72.4,66.1,71.8,67.7,65.5,100,87,62,29.88,29.74,7,0,9,0.23
2013-7-2,84.7,75.2,67.4,74.0,69.6,67.3,100,85,59,29.99,29.86,10,1,12,0.13
2013-7-3,87.4,77.5,68.4,71.0,69.1,66.8,97,77,53,30.10,29.99,10,1,16,0.00
2013-7-4,87.2,77.5,71.1,72.2,69.8,66.2,98,79,53,30.15,30.04,10,1,18,0.01
2013-7-5,83.8,76.3,69.3,72.2,69.8,67.9,100,82,62,30.10,30.02,11,2,16,0.00
2013-7-6,90.3,79.2,69.1,73.7,71.1,68.5,100,79,50,30.10,29.95,13,2,18,0.01
2013-7-7,77.2,73.4,69.6,72.6,69.8,68.3,98,89,79,30.04,29.95,9,2,13,0.08
2013-7-8,83.4,74.2,64.0,71.1,68.2,63.6,100,83,62,30.07,29.98,10,2,14,0.05
2013-7-9,84.0,74.4,68.8,75.4,71.3,68.2,100,91,72,30.05,29.89,14,2,21,0.40
2013-7-10,85.5,73.2,66.4,79.4,71.2,66.3,100,94,70,29.95,29.74,16,2,23,2.20
2013-7-11,79.6,70.6,63.2,68.8,63.8,60.2,100,82,53,29.93,29.83,5,0,10,0.00
2013-7-12,77.7,66.7,56.6,68.5,63.3,56.5,100,90,65,30.04,29.93,3,0,9,0.04
2013-7-13,84.5,73.5,61.5,69.5,66.5,61.4,100,81,55,30.15,30.03,7,1,12,0.00
2013-7-14,89.7,80.0,68.9,72.7,69.1,66.5,99,72,48,30.22,30.14,19,2,22,0.00
2013-7-15,91.6,79.7,67.8,73.7,70.5,66.8,100,77,46,30.26,30.16,6,1,11,0.00
2013-7-16,91.4,77.7,70.6,78.0,73.2,70.5,100,88,57,30.24,30.17,4,0,10,0.01
2013-7-17,90.5,78.9,70.1,79.4,74.9,70.0,100,89,62,30.23,30.08,6,0,13,0.00
2013-7-18,92.7,81.7,70.8,78.9,74.9,70.7,100,82,53,30.09,29.94,12,1,12,0.00
2013-7-19,90.7,79.0,73.0,78.1,74.0,70.5,100,86,60,29.96,29.79,15,2,20,0.05
2013-7-20,80.9,74.6,71.3,74.8,70.9,68.1,98,89,73,29.85,29.78,16,2,19,0.02
2013-7-21,85.1,74.7,68.6,73.9,70.1,68.2,100,87,63,29.90,29.82,10,1,11,0.02
2013-7-22,79.9,72.5,65.3,74.9,70.6,65.2,100,94,77,29.88,29.70,13,0,14,0.20
2013-7-23,83.6,72.4,65.8,70.0,67.8,63.4,100,87,56,29.73,29.63,15,2,15,0.10
2013-7-24,74.2,66.5,59.2,66.2,58.7,53.6,100,78,53,29.94,29.68,11,0,13,0.00
2013-7-25,79.0,65.3,50.5,59.2,53.7,46.2,100,70,34,30.03,29.94,10,0,12,0.00
2013-7-26,81.1,67.2,51.7,63.6,56.7,51.4,100,73,41,30.05,29.94,10,1,11,0.00
2013-7-27,74.9,66.9,59.6,71.7,64.6,58.3,100,93,82,29.94,29.79,18,1,18,0.47
2013-7-28,76.3,68.1,58.4,67.3,61.6,54.8,100,82,51,29.99,29.80,14,2,16,0.13
2013-7-29,74.0,63.4,51.1,59.4,55.2,50.8,100,77,54,30.15,29.99,16,2,17,0.00
2013-7-30,78.6,66.1,53.2,63.9,57.6,53.1,100,77,46,30.19,30.09,10,0,10,0.00
2013-7-31,78.8,67.3,57.2,68.1,63.1,56.9,100,88,60,30.11,29.90,12,1,13,0.02
2013-8-1,81.1,71.7,64.3,69.7,64.9,60.2,100,82,53,29.90,29.80,12,1,14,0.03
2013-8-2,76.8,68.3,56.7,65.2,59.7,51.9,100,77,45,29.94,29.85,18,2,23,0.00
2013-8-3,76.8,68.7,59.8,69.0,64.4,56.6,100,87,64,29.96,29.87,12,2,15,0.20
2013-8-4,76.3,64.3,53.1,64.0,56.4,52.8,100,79,48,30.05,29.95,12,1,14,0.01
2013-8-5,75.8,63.7,50.5,60.8,55.3,50.2,100,77,44,30.08,29.97,11,0,11,0.00
2013-8-6,82.4,68.6,55.1,62.8,57.6,51.2,100,72,36,29.99,29.91,15,1,15,0.00
2013-8-7,84.7,70.8,61.6,73.2,66.7,59.5,100,88,63,29.96,29.86,17,1,22,0.42
2013-8-8,85.7,74.8,65.6,75.2,70.9,65.5,100,89,66,29.92,29.84,12,2,14,0.00
2013-8-9,79.0,74.6,67.8,75.5,71.9,66.6,100,92,77,29.95,29.81,18,1,18,0.09
2013-8-10,80.7,71.7,62.6,68.3,65.3,62.3,100,82,60,30.04,29.95,8,0,10,0.00
2013-8-11,84.7,72.0,61.3,71.5,66.0,61.2,100,83,54,30.07,29.95,11,0,11,0.02
2013-8-12,84.0,74.0,65.8,71.5,66.8,62.8,100,81,52,30.01,29.81,11,1,13,0.01
2013-8-13,80.3,71.6,59.2,72.0,64.2,50.8,99,79,54,29.92,29.73,19,2,19,0.15
2013-8-14,68.8,58.8,48.9,55.2,52.1,48.3,100,80,57,30.10,29.92,12,1,16,0.00
2013-8-15,75.6,60.6,44.9,59.0,49.8,44.6,100,73,37,30.15,30.05,17,1,17,0.00
2013-8-16,80.9,65.3,50.8,60.8,54.3,50.4,100,73,36,30.11,30.05,10,0,11,0.00
2013-8-17,79.6,66.1,52.9,62.3,56.4,52.1,100,75,40,30.20,30.11,26,1,26,0.00
2013-8-18,73.0,67.0,62.6,68.1,63.8,59.2,100,90,76,30.17,30.09,12,0,13,0.15
2013-8-19,80.7,70.6,62.6,71.2,66.3,60.6,100,88,59,30.10,30.00,10,0,10,0.15
2013-8-20,84.0,67.9,54.7,68.2,60.1,54.6,100,80,44,30.14,30.06,13,1,13,0.01
2013-8-21,85.3,71.6,56.9,69.5,63.2,56.8,100,78,45,30.15,30.00,8,0,10,0.00
2013-8-22,83.8,74.5,67.3,72.4,69.2,65.2,97,84,62,30.03,29.91,15,2,15,0.17
2013-8-23,81.6,72.1,63.1,71.4,66.2,60.4,100,84,54,30.09,29.92,13,0,15,0.06
2013-8-24,83.4,68.2,53.2,65.2,59.5,53.1,100,77,43,30.23,30.09,12,0,14,0.01
2013-8-25,83.2,68.7,54.4,66.0,59.8,54.3,100,77,43,30.32,30.19,11,1,13,0.00
2013-8-26,85.3,71.7,57.2,68.3,63.1,57.1,100,77,49,30.20,29.97,17,2,17,0.00
2013-8-27,81.1,75.0,70.9,72.6,70.8,68.3,97,87,71,29.97,29.88,12,2,13,0.00
2013-8-28,82.2,74.7,71.3,77.1,73.3,70.9,100,96,79,29.89,29.76,14,1,16,0.42
2013-8-29,87.8,76.2,69.3,72.3,70.1,65.8,100,84,50,29.98,29.85,6,0,7,0.01
2013-8-30,88.0,75.2,62.3,72.5,68.6,62.0,100,83,53,29.96,29.77,13,2,16,0.00
2013-8-31,86.7,76.9,70.8,72.3,70.8,68.2,99,83,56,29.79,29.70,13,2,15,0.00
2013-9-1,81.8,74.5,70.4,72.9,71.4,69.4,100,91,71,29.77,29.70,12,1,13,0.00
2013-9-2,84.7,74.2,66.9,73.6,69.9,65.7,100,88,61,29.78,29.67,18,2,21,0.00
2013-9-3,73.7,65.3,56.2,65.7,59.2,53.9,100,83,54,30.00,29.77,14,1,15,0.01
2013-9-4,78.6,63.0,47.9,61.1,54.8,47.8,100,78,43,30.08,29.99,12,1,14,0.00
2013-9-5,76.3,65.9,56.0,63.1,55.6,47.9,99,73,42,30.16,30.01,13,1,18,0.00
2013-9-6,76.8,59.6,42.3,54.7,44.9,33.5,100,66,21,30.24,30.08,12,1,13,0.00
2013-9-7,80.7,63.3,43.9,60.0,51.1,43.5,100,70,33,30.08,29.89,13,1,14,0.00
2013-9-8,82.4,71.4,62.7,68.5,63.3,58.8,92,77,59,30.00,29.84,9,0,10,0.00
2013-9-9,85.1,69.7,56.0,72.7,65.1,55.7,100,87,61,30.04,29.94,16,1,16,0.00
2013-9-10,90.7,79.2,69.8,76.1,72.6,69.1,100,82,59,30.07,29.98,16,3,18,0.00
2013-9-11,89.7,77.8,70.9,75.9,72.1,68.4,100,84,56,30.08,29.95,17,1,18,0.00
2013-9-12,77.4,71.6,62.4,73.1,69.5,61.8,100,94,76,29.95,29.75,14,2,18,0.06
2013-9-13,67.6,59.3,53.3,61.5,54.4,47.0,100,85,61,29.98,29.76,16,1,16,0.12
2013-9-14,69.6,56.8,47.4,49.6,46.2,41.5,96,71,38,30.13,29.97,12,0,13,0.00
2013-9-15,71.3,57.1,41.1,56.8,49.6,40.8,100,79,50,30.16,30.01,15,1,18,0.00
2013-9-16,71.8,61.6,53.5,61.4,55.3,49.8,100,82,52,30.26,30.01,10,0,11,0.30
2013-9-17,72.8,57.0,42.2,54.3,48.4,41.9,100,76,41,30.35,30.21,13,0,13,0.00
2013-9-18,75.8,62.9,44.6,56.9,51.3,43.1,95,69,43,30.21,30.06,13,1,17,0.00
2013-9-19,79.2,67.8,60.4,65.0,61.1,56.9,100,81,53,30.09,29.97,14,1,14,0.00
2013-9-20,80.7,69.5,57.8,70.4,65.9,57.2,100,89,69,29.99,29.77,15,2,16,0.00
2013-9-21,69.8,64.7,57.0,69.0,63.7,56.9,100,97,88,29.77,29.63,12,1,14,0.92
2013-9-22,63.5,56.9,52.6,56.9,50.9,45.0,100,82,56,29.98,29.75,12,1,14,0.01
2013-9-23,60.9,53.7,42.5,50.0,45.9,40.1,94,76,54,30.11,29.97,7,0,9,0.00
2013-9-24,72.3,52.6,36.9,52.4,43.4,36.6,100,76,37,30.10,29.93,11,0,12,0.00
2013-9-25,79.0,58.1,42.9,55.8,49.1,42.6,100,77,36,29.94,29.82,11,0,11,0.00
2013-9-26,79.9,61.2,45.1,59.8,50.1,41.5,100,74,27,30.03,29.88,6,0,7,0.00
2013-9-27,77.7,58.9,42.3,59.4,50.2,42.0,100,77,39,30.14,30.02,11,0,11,0.00
2013-9-28,75.6,60.1,44.6,58.2,51.6,44.3,100,77,45,30.21,30.10,14,1,16,0.00
2013-9-29,76.7,61.8,48.9,60.6,54.4,46.9,100,79,51,30.09,29.95,14,1,14,0.00
2013-9-30,72.7,62.0,52.6,63.7,58.5,52.0,100,89,65,30.00,29.93,11,1,13,0.01
2013-10-1,77.9,65.7,55.1,63.7,59.2,54.4,100,82,54,30.03,29.95,15,2,15,0.00
2013-10-2,81.2,66.1,53.2,66.7,60.2,53.1,100,84,56,30.05,29.98,13,1,14,0.00
2013-10-3,80.7,67.8,57.0,70.2,63.6,56.9,100,88,63,30.05,29.96,13,1,15,0.32
2013-10-4,81.2,70.6,62.3,72.4,66.0,62.2,100,87,59,30.05,29.97,14,1,17,0.01
2013-10-5,84.7,70.8,62.9,70.1,66.7,62.8,100,89,55,30.04,29.92,15,1,18,0.40
2013-10-6,85.5,74.0,64.5,70.7,64.5,59.3,100,76,43,29.93,29.68,18,3,20,0.00
2013-10-7,73.2,57.3,46.7,61.8,50.1,43.5,100,78,58,30.10,29.63,23,4,23,0.34
2013-10-8,68.6,52.5,38.5,52.1,44.7,38.2,100,79,42,30.26,30.10,12,0,13,0.00
2013-10-9,71.5,53.2,36.9,51.3,42.5,36.6,100,72,34,30.30,30.18,12,1,16,0.00
2013-10-10,75.1,58.2,45.7,49.7,44.6,39.7,96,65,31,30.18,30.03,10,0,10,0.00
2013-10-11,61.8,57.4,53.8,59.7,54.4,48.3,98,90,70,30.05,29.99,4,0,6,0.08
2013-10-12,74.4,63.3,54.5,64.3,58.9,53.5,100,87,69,30.10,30.00,14,0,15,0.00
2013-10-13,71.8,64.5,59.3,62.5,59.0,55.6,95,83,66,30.20,30.08,12,0,15,0.01
2013-10-14,63.5,60.6,58.0,60.3,58.8,57.5,100,94,84,30.25,30.17,5,0,7,0.00
2013-10-15,72.0,62.0,51.3,61.7,57.5,51.2,100,87,66,30.17,29.93,14,1,15,0.00
2013-10-16,63.9,59.9,55.0,62.2,58.7,53.8,100,96,91,29.93,29.81,15,2,18,0.38
2013-10-17,63.4,55.5,50.2,61.9,54.0,49.2,100,95,81,29.86,29.64,15,1,17,0.62
2013-10-18,62.3,51.7,42.1,49.2,44.0,39.6,97,77,46,29.99,29.85,17,4,19,0.00
2013-10-19,54.2,45.1,35.9,48.7,42.0,35.3,100,90,73,29.95,29.73,18,2,22,0.05
2013-10-20,58.6,46.5,38.2,42.1,38.8,36.3,98,78,46,30.02,29.92,23,4,26,0.01
2013-10-21,66.9,50.8,34.3,45.7,37.0,32.5,100,66,28,30.04,29.80,19,2,20,0.00
2013-10-22,56.5,47.5,40.8,48.7,37.2,28.5,97,70,42,29.94,29.77,15,2,16,0.18
2013-10-23,42.1,40.2,36.0,40.4,37.5,34.6,96,90,77,29.91,29.73,10,1,14,0.11
2013-10-24,45.4,38.6,31.2,36.2,32.8,27.7,97,81,52,30.13,29.90,18,3,21,0.02
2013-10-25,47.4,37.7,28.8,38.4,30.7,26.3,100,78,47,30.32,30.13,13,2,15,0.02
2013-10-26,50.2,41.2,31.6,32.6,28.0,23.1,89,62,36,30.24,29.87,27,5,28,0.00
2013-10-27,54.8,42.4,29.4,39.2,31.2,26.6,97,67,39,30.08,29.94,16,1,17,0.00
2013-10-28,61.3,42.5,27.0,43.6,32.2,26.0,100,72,34,30.26,30.07,8,0,8,0.00
2013-10-29,62.3,45.0,29.8,44.8,36.7,28.5,100,76,39,30.37,30.22,6,0,6,0.00
2013-10-30,65.0,52.7,42.6,55.8,46.8,40.0,96,82,60,30.23,30.05,10,0,12,0.00
2013-10-31,69.3,62.7,57.6,60.3,57.8,55.0,100,85,61,30.05,29.41,27,5,29,0.15
2013-11-1,70.1,59.1,50.7,59.0,49.2,43.3,94,71,50,29.65,29.28,29,6,34,0.14
2013-11-2,52.8,49.0,44.1,46.7,43.3,39.9,95,81,69,29.92,29.61,16,2,18,0.02
2013-11-3,50.8,41.6,29.1,42.9,34.3,26.0,96,77,46,30.43,29.92,13,1,14,0.00
2013-11-4,47.4,36.4,23.9,30.7,24.9,20.9,98,67,36,30.53,30.40,13,1,14,0.00
2013-11-5,60.1,47.5,35.8,36.5,31.3,27.3,80,56,32,30.48,30.29,18,1,18,0.00
2013-11-6,72.5,55.7,33.8,57.6,44.3,29.8,100,69,45,30.29,29.85,19,3,30,0.07
2013-11-7,58.3,46.1,38.9,57.9,40.3,25.7,100,82,53,30.11,29.80,19,3,20,0.66
2013-11-8,43.3,37.4,26.4,32.0,27.9,23.9,90,69,48,30.29,30.06,15,-565,17,0.00
2013-11-9,58.3,42.5,24.4,32.6,24.6,19.3,97,58,23,30.27,29.92,23,4,28,0.00
2013-11-10,53.8,44.9,36.2,37.3,31.9,26.8,75,61,40,30.25,29.92,24,5,29,0.00
2013-11-11,49.2,39.9,26.9,40.9,30.0,23.9,96,71,37,30.26,30.00,19,4,20,0.02
2013-11-12,36.0,30.8,26.4,33.3,27.1,21.7,100,87,61,30.47,30.07,15,1,19,0.20
2013-11-13,37.0,29.9,23.2,23.5,21.5,19.5,89,72,49,30.53,30.36,17,3,21,0.00
2013-11-14,50.2,35.5,25.4,24.2,20.6,16.1,79,58,27,30.36,30.16,17,3,20,0.00
2013-11-15,56.2,42.3,26.1,37.5,25.9,18.7,88,58,23,30.22,30.10,21,3,21,0.00
2013-11-16,61.2,50.8,34.1,50.4,43.3,31.2,96,76,59,30.20,29.97,16,2,20,0.00
2013-11-17,62.0,58.1,53.9,60.5,54.5,48.3,99,88,76,29.97,29.47,27,5,31,0.61
2013-11-18,59.3,49.0,39.1,53.0,35.1,25.5,80,59,43,30.03,29.56,26,9,33,0.00
2013-11-19,38.9,35.0,25.3,27.1,25.0,21.8,88,67,58,30.39,30.03,20,2,20,0.00
2013-11-20,49.5,34.9,20.5,29.9,17.2,7.5,98,57,19,30.46,30.33,26,2,27,0.00
2013-11-21,58.0,45.0,29.7,43.4,31.2,17.6,79,60,42,30.41,30.17,13,1,14,0.00
2013-11-22,53.8,49.9,36.6,53.7,47.6,33.3,100,93,75,30.21,30.00,20,2,25,0.27
2013-11-23,38.3,31.3,20.0,33.3,24.6,12.3,92,77,52,30.35,30.12,24,5,31,0.00
2013-11-24,23.8,18.8,12.4,14.6,10.8,6.6,80,70,58,30.55,30.34,21,4,22,0.00
2013-11-25,37.9,25.5,11.1,19.0,9.4,3.6,86,55,25,30.51,30.20,21,3,21,0.00
2013-11-26,37.9,33.2,31.3,36.0,32.2,19.0,100,96,48,30.20,29.70,20,1,21,1.02
2013-11-27,32.9,28.4,22.9,32.9,25.6,15.9,100,90,72,30.13,29.70,24,5,27,0.02
2013-11-28,29.8,24.7,15.9,21.5,16.8,11.3,84,72,61,30.41,30.13,15,3,16,0.00
2013-11-29,37.6,29.3,22.2,27.3,20.7,18.3,89,71,47,30.65,30.41,11,0,11,0.12
2013-11-30,40.9,29.7,21.3,24.9,21.7,16.8,88,73,52,30.60,30.21,16,1,17,0.03
2013-12-1,45.7,36.8,24.7,33.8,29.1,22.2,96,75,53,30.20,29.93,14,1,16,0.01
2013-12-2,52.0,40.9,35.0,38.3,35.2,32.3,93,81,58,29.93,29.77,9,0,12,0.00
2013-12-3,56.3,42.3,36.5,45.3,38.5,35.3,100,88,58,29.88,29.81,6,0,7,0.02
2013-12-4,59.6,46.7,33.1,48.5,42.1,32.6,100,85,64,29.96,29.82,11,1,15,0.00
2013-12-5,62.6,55.6,40.6,60.1,52.4,39.8,100,90,75,30.01,29.79,21,2,24,1.23
2013-12-6,40.3,33.7,28.5,39.5,33.2,28.2,100,98,96,30.26,29.99,12,1,13,0.31
2013-12-7,31.8,26.2,18.3,28.2,22.3,14.9,99,86,63,30.59,30.25,14,2,15,0.08
2013-12-8,31.9,24.1,16.9,31.4,20.7,14.6,98,87,76,30.58,30.06,13,0,14,0.00
2013-12-9,38.0,34.3,30.0,38.0,32.0,24.0,100,91,77,30.12,29.94,18,4,20,0.25
2013-12-10,30.1,26.3,22.7,24.4,18.4,8.9,95,73,44,30.26,30.03,20,5,22,0.01
2013-12-11,30.3,24.3,18.3,21.9,14.6,11.6,84,67,53,30.36,30.22,19,4,21,0.00
2013-12-12,22.9,18.9,12.1,14.4,6.5,2.4,81,59,42,30.48,30.26,22,6,22,0.00
2013-12-13,36.2,26.7,20.6,22.7,13.9,4.7,81,59,46,30.26,30.18,19,4,19,0.00
2013-12-14,37.2,32.7,27.9,36.9,29.4,21.8,100,88,66,30.22,29.63,18,1,19,0.50
2013-12-15,39.1,30.1,22.4,39.0,26.2,11.8,100,86,63,30.02,29.59,27,7,28,0.03
2013-12-16,25.4,22.8,19.7,22.2,16.7,12.1,88,77,64,30.17,30.02,11,1,13,0.00
2013-12-17,34.4,30.7,25.1,33.3,27.4,22.1,98,88,73,30.03,29.92,17,2,22,0.05
2013-12-18,29.5,26.1,18.1,24.1,20.6,14.7,92,80,67,30.19,30.03,18,4,20,0.00
2013-12-19,53.2,39.7,25.7,36.6,27.5,19.0,90,63,44,30.09,29.99,25,4,25,0.01
2013-12-20,57.3,50.1,32.8,51.2,40.1,27.6,93,71,43,29.99,29.83,22,4,25,0.02
2013-12-21,61.0,58.3,53.8,60.9,56.2,50.3,100,93,79,29.84,29.59,20,4,20,0.68
2013-12-22,70.4,60.4,54.4,61.2,55.7,47.6,100,85,67,29.88,29.48,37,8,37,0.23
2013-12-23,54.4,38.9,30.7,47.4,34.9,20.3,98,86,65,30.27,29.90,19,2,19,0.06
2013-12-24,30.7,23.1,14.0,24.4,14.4,7.2,91,69,53,30.54,30.21,29,4,29,0.00
2013-12-25,27.3,20.0,10.7,23.4,12.9,6.3,89,74,57,30.53,30.22,12,1,13,0.00
2013-12-26,36.6,30.6,22.9,28.7,23.0,15.9,96,75,49,30.34,30.12,23,4,25,0.06
2013-12-27,42.9,32.8,20.8,27.5,22.5,15.9,88,67,52,30.35,30.24,16,3,19,0.00
2013-12-28,52.6,42.1,34.4,30.7,26.3,21.4,81,54,40,30.24,30.03,20,5,22,0.00
2013-12-29,42.8,40.1,34.6,42.4,37.7,28.3,100,92,59,30.01,29.64,19,2,25,0.66
2013-12-30,40.3,27.2,22.5,39.2,22.1,12.9,96,81,64,30.18,29.81,20,3,22,0.01
2013-12-31,25.7,24.0,22.5,21.9,18.3,14.2,91,79,66,30.31,30.07,23,5,26,0.00
2014-1-1,39.5,30.6,24.8,27.5,23.1,18.6,81,74,61,30.31,30.03,10,0,11,0.00
2014-1-2,30.7,25.0,11.2,28.0,22.1,8.7,94,89,81,30.03,29.66,16,2,19,0.00